createdAt,value
2017-11-18T00:00:29.143Z,2.40
2017-11-18T00:02:55.922Z,2.03
2017-11-18T00:05:22.582Z,1.93
2017-11-18T00:07:49.283Z,2.00
2017-11-18T00:10:15.962Z,2.00
2017-11-18T00:12:42.630Z,1.80
2017-11-18T00:15:09.285Z,2.00
2017-11-18T00:17:35.970Z,2.10
2017-11-18T00:20:02.606Z,1.90
2017-11-18T00:22:29.318Z,1.70
2017-11-18T00:24:56.094Z,1.30
2017-11-18T00:27:22.768Z,2.20
2017-11-18T00:29:49.452Z,1.73
2017-11-18T00:32:16.106Z,1.80
2017-11-18T00:34:42.782Z,1.90
2017-11-18T00:37:09.422Z,1.97
2017-11-18T00:39:36.071Z,2.43
2017-11-18T00:42:02.701Z,1.80
2017-11-18T00:44:29.334Z,1.93
2017-11-18T00:46:56.016Z,1.60
2017-11-18T00:49:23.032Z,2.07
2017-11-18T00:51:49.787Z,1.73
2017-11-18T00:54:16.434Z,1.77
2017-11-18T00:56:43.132Z,1.60
2017-11-18T00:59:09.810Z,1.60
2017-11-18T01:01:36.660Z,1.67
2017-11-18T01:04:03.308Z,1.50
2017-11-18T01:06:29.962Z,1.80
2017-11-18T01:08:56.610Z,1.83
2017-11-18T01:11:23.466Z,1.50
2017-11-18T01:13:50.241Z,1.87
2017-11-18T01:16:16.897Z,1.70
2017-11-18T01:18:43.549Z,1.73
2017-11-18T01:21:10.287Z,1.90
2017-11-18T01:23:36.938Z,2.10
2017-11-18T01:26:03.573Z,2.53
2017-11-18T01:28:30.231Z,1.77
2017-11-18T01:30:56.870Z,1.80
2017-11-18T01:33:23.562Z,1.87
2017-11-18T01:35:50.257Z,1.77
2017-11-18T01:38:16.914Z,2.10
2017-11-18T01:40:43.594Z,2.20
2017-11-18T01:43:10.280Z,1.60
2017-11-18T01:45:36.929Z,1.67
2017-11-18T01:48:03.646Z,1.73
2017-11-18T01:50:30.393Z,1.60
2017-11-18T01:52:57.022Z,1.63
2017-11-18T01:55:23.788Z,1.87
2017-11-18T01:57:50.525Z,2.00
2017-11-18T02:00:17.190Z,1.53
2017-11-18T02:02:43.850Z,1.67
2017-11-18T02:05:10.520Z,1.77
2017-11-18T02:07:37.227Z,1.80
2017-11-18T02:10:03.913Z,1.87
2017-11-18T02:12:30.582Z,1.80
2017-11-18T02:14:57.213Z,1.70
2017-11-18T02:17:23.970Z,1.80
2017-11-18T02:19:50.647Z,1.60
2017-11-18T02:22:17.378Z,1.60
2017-11-18T02:24:44.030Z,2.00
2017-11-18T02:27:10.729Z,2.30
2017-11-18T02:29:37.386Z,2.00
2017-11-18T02:32:04.078Z,1.70
2017-11-18T02:34:30.734Z,1.90
2017-11-18T02:36:57.401Z,1.90
2017-11-18T02:39:24.051Z,1.60
2017-11-18T02:41:50.794Z,1.30
2017-11-18T02:44:17.481Z,1.90
2017-11-18T02:46:44.134Z,1.60
2017-11-18T02:49:10.771Z,1.83
2017-11-18T02:51:37.421Z,1.87
2017-11-18T02:54:04.247Z,1.77
2017-11-18T02:56:30.894Z,2.03
2017-11-18T02:58:57.567Z,1.70
2017-11-18T03:01:24.280Z,2.00
2017-11-18T03:03:50.969Z,2.03
2017-11-18T03:06:17.709Z,1.70
2017-11-18T03:08:44.367Z,1.60
2017-11-18T03:11:11.142Z,1.70
2017-11-18T03:13:37.858Z,1.57
2017-11-18T03:16:04.485Z,1.63
2017-11-18T03:18:31.162Z,1.60
2017-11-18T03:20:57.806Z,1.80
2017-11-18T03:23:24.538Z,1.67
2017-11-18T03:25:51.243Z,1.73
2017-11-18T03:28:17.965Z,1.70
2017-11-18T03:30:44.662Z,1.67
2017-11-18T03:33:11.389Z,2.00
2017-11-18T03:35:38.125Z,1.77
2017-11-18T03:38:04.777Z,1.80
2017-11-18T03:40:31.430Z,1.63
2017-11-18T03:42:58.077Z,1.63
2017-11-18T03:45:24.751Z,1.90
2017-11-18T03:47:51.720Z,1.90
2017-11-18T03:50:18.391Z,2.20
2017-11-18T03:52:45.021Z,2.00
2017-11-18T03:55:11.762Z,1.80
2017-11-18T03:57:38.389Z,1.70
2017-11-18T04:00:05.094Z,1.30
2017-11-18T04:02:31.725Z,1.80
2017-11-18T04:04:58.458Z,1.70
2017-11-18T04:07:25.176Z,2.03
2017-11-18T04:09:51.874Z,1.70
2017-11-18T04:12:18.619Z,1.77
2017-11-18T04:14:45.270Z,1.47
2017-11-18T04:17:12.065Z,1.40
2017-11-18T04:19:38.692Z,1.80
2017-11-18T04:22:05.433Z,1.40
2017-11-18T04:24:32.061Z,1.90
2017-11-18T04:26:59.048Z,1.80
2017-11-18T04:29:25.698Z,1.80
2017-11-18T04:31:52.856Z,1.90
2017-11-18T04:34:19.637Z,1.50
2017-11-18T04:36:46.283Z,2.03
2017-11-18T04:39:12.956Z,1.30
2017-11-18T04:44:11.026Z,1.70
2017-11-18T04:46:37.666Z,1.90
2017-11-18T04:49:04.421Z,2.03
2017-11-18T04:51:31.077Z,1.80
2017-11-18T04:53:57.830Z,1.80
2017-11-18T04:56:24.531Z,1.87
2017-11-18T04:58:51.217Z,1.73
2017-11-18T05:01:17.998Z,1.63
2017-11-18T05:03:44.630Z,1.70
2017-11-18T05:06:11.321Z,1.97
2017-11-18T05:08:37.953Z,1.97
2017-11-18T05:11:04.696Z,1.70
2017-11-18T05:13:31.349Z,1.60
2017-11-18T05:15:58.001Z,1.70
2017-11-18T05:18:24.684Z,1.90
2017-11-18T05:20:51.468Z,1.63
2017-11-18T05:23:18.119Z,1.80
2017-11-18T05:25:44.753Z,1.63
2017-11-18T05:28:11.435Z,1.83
2017-11-18T05:30:38.116Z,1.97
2017-11-18T05:33:04.861Z,2.17
2017-11-18T05:35:31.495Z,1.90
2017-11-18T05:37:58.144Z,2.03
2017-11-18T05:40:24.923Z,1.80
2017-11-18T05:42:51.597Z,1.70
2017-11-18T05:45:18.241Z,1.40
2017-11-18T05:47:44.982Z,1.50
2017-11-18T05:50:11.659Z,1.90
2017-11-18T05:52:38.295Z,1.93
2017-11-18T05:55:04.942Z,1.83
2017-11-18T05:57:31.585Z,1.87
2017-11-18T05:59:58.350Z,1.50
2017-11-18T06:02:24.990Z,1.63
2017-11-18T06:04:51.725Z,1.90
2017-11-18T06:07:18.365Z,1.90
2017-11-18T06:09:45.045Z,1.77
2017-11-18T06:12:11.684Z,2.00
2017-11-18T06:14:38.321Z,1.50
2017-11-18T06:17:04.997Z,1.90
2017-11-18T06:19:31.625Z,1.63
2017-11-18T06:21:58.268Z,1.67
2017-11-18T06:24:24.917Z,1.70
2017-11-18T06:26:51.681Z,1.93
2017-11-18T06:29:18.362Z,2.07
2017-11-18T06:31:45.029Z,2.10
2017-11-18T06:34:11.796Z,1.70
2017-11-18T06:36:38.643Z,2.10
2017-11-18T06:39:05.382Z,1.80
2017-11-18T06:41:32.025Z,1.70
2017-11-18T06:43:58.674Z,1.83
2017-11-18T06:46:25.450Z,1.80
2017-11-18T06:48:52.180Z,1.50
2017-11-18T06:51:18.941Z,1.60
2017-11-18T06:53:45.615Z,1.50
2017-11-18T06:56:12.256Z,1.63
2017-11-18T06:58:38.898Z,1.87
2017-11-18T07:01:05.649Z,1.93
2017-11-18T07:03:32.313Z,1.83
2017-11-18T07:05:58.966Z,1.67
2017-11-18T07:08:25.605Z,2.00
2017-11-18T07:10:52.370Z,1.57
2017-11-18T07:13:19.009Z,1.80
2017-11-18T07:15:45.666Z,1.60
2017-11-18T07:18:12.298Z,1.70
2017-11-18T07:20:38.980Z,1.77
2017-11-18T07:23:05.618Z,1.80
2017-11-18T07:25:32.373Z,1.77
2017-11-18T07:27:59.021Z,1.50
2017-11-18T07:30:25.658Z,1.50
2017-11-18T07:32:52.333Z,1.60
2017-11-18T07:35:18.966Z,1.93
2017-11-18T07:37:45.617Z,1.73
2017-11-18T07:40:12.287Z,2.20
2017-11-18T07:42:38.947Z,1.80
2017-11-18T07:45:05.583Z,2.20
2017-11-18T07:47:32.340Z,1.83
2017-11-18T07:49:58.974Z,1.60
2017-11-18T07:52:25.641Z,2.03
2017-11-18T07:54:52.293Z,1.50
2017-11-18T07:57:18.942Z,1.70
2017-11-18T07:59:45.592Z,1.70
2017-11-18T08:02:12.353Z,1.60
2017-11-18T08:04:39.003Z,1.80
2017-11-18T08:07:05.629Z,1.60
2017-11-18T08:09:32.277Z,1.70
2017-11-18T08:11:58.956Z,1.70
2017-11-18T08:14:25.706Z,1.60
2017-11-18T08:16:52.337Z,1.60
2017-11-18T08:19:19.006Z,1.50
2017-11-18T08:21:46.212Z,3.10
2017-11-18T08:24:12.862Z,1.80
2017-11-18T08:26:39.498Z,1.67
2017-11-18T08:29:06.163Z,1.47
2017-11-18T08:31:32.814Z,1.43
2017-11-18T08:33:59.531Z,1.87
2017-11-18T08:36:32.010Z,1.70
2017-11-18T08:38:58.645Z,1.93
2017-11-18T08:41:25.293Z,1.80
2017-11-18T08:43:51.925Z,1.90
2017-11-18T08:46:18.573Z,1.50
2017-11-18T08:48:45.210Z,1.80
2017-11-18T08:51:11.841Z,1.70
2017-11-18T08:53:38.499Z,1.40
2017-11-18T08:56:05.228Z,1.90
2017-11-18T08:58:31.874Z,5.40
2017-11-18T09:00:58.513Z,2.87
2017-11-18T09:03:25.166Z,2.93
2017-11-18T09:05:51.832Z,2.00
2017-11-18T09:08:18.481Z,2.13
2017-11-18T09:10:45.121Z,1.97
2017-11-18T09:13:11.785Z,1.83
2017-11-18T09:15:38.413Z,2.10
2017-11-18T09:18:05.048Z,1.90
2017-11-18T09:20:31.697Z,1.60
2017-11-18T09:22:58.330Z,1.90
2017-11-18T09:25:24.982Z,1.80
2017-11-18T09:27:51.706Z,1.67
2017-11-18T09:30:18.362Z,2.10
2017-11-18T09:32:45.000Z,2.30
2017-11-18T09:35:11.750Z,2.00
2017-11-18T09:37:38.381Z,2.10
2017-11-18T09:40:05.049Z,2.87
2017-11-18T09:42:31.686Z,2.17
2017-11-18T09:44:59.350Z,2.60
2017-11-18T09:47:26.010Z,2.37
2017-11-18T09:49:52.654Z,2.40
2017-11-18T09:52:19.310Z,2.60
2017-11-18T09:54:45.973Z,2.83
2017-11-18T09:57:12.729Z,2.80
2017-11-18T09:59:39.387Z,2.87
2017-11-18T10:02:06.046Z,2.90
2017-11-18T10:04:32.678Z,2.80
2017-11-18T10:06:59.321Z,2.63
2017-11-18T10:09:25.959Z,2.47
2017-11-18T10:11:52.598Z,3.40
2017-11-18T10:14:19.246Z,3.87
2017-11-18T10:16:45.889Z,2.70
2017-11-18T10:19:12.582Z,4.23
2017-11-18T10:21:39.222Z,4.53
2017-11-18T10:24:05.885Z,3.60
2017-11-18T10:26:32.515Z,4.23
2017-11-18T10:28:59.171Z,3.93
2017-11-18T10:31:25.813Z,4.57
2017-11-18T10:33:52.469Z,3.90
2017-11-18T10:36:19.239Z,3.83
2017-11-18T10:38:46.094Z,3.67
2017-11-18T10:41:12.749Z,3.90
2017-11-18T10:43:39.399Z,3.33
2017-11-18T10:46:06.049Z,4.17
2017-11-18T10:48:32.696Z,3.33
2017-11-18T10:50:59.454Z,3.30
2017-11-18T10:53:26.106Z,2.40
2017-11-18T10:55:52.764Z,2.33
2017-11-18T10:58:19.399Z,2.30
2017-11-18T11:00:46.155Z,2.70
2017-11-18T11:03:12.789Z,2.40
2017-11-18T11:05:39.442Z,2.33
2017-11-18T11:08:06.082Z,2.40
2017-11-18T11:10:32.729Z,2.50
2017-11-18T11:12:59.414Z,2.10
2017-11-18T11:15:26.169Z,2.63
2017-11-18T11:17:52.811Z,2.23
2017-11-18T11:20:19.625Z,2.07
2017-11-18T11:22:46.291Z,2.10
2017-11-18T11:25:12.969Z,2.57
2017-11-18T11:27:39.619Z,2.77
2017-11-18T11:30:06.256Z,2.13
2017-11-18T11:32:32.906Z,2.50
2017-11-18T11:34:59.542Z,2.03
2017-11-18T11:37:26.203Z,2.03
2017-11-18T11:39:52.839Z,2.10
2017-11-18T11:42:19.489Z,2.60
2017-11-18T11:44:46.121Z,2.57
2017-11-18T11:47:12.832Z,2.47
2017-11-18T11:49:39.461Z,2.27
2017-11-18T11:52:06.227Z,2.20
2017-11-18T11:54:32.858Z,2.73
2017-11-18T11:56:59.533Z,2.27
2017-11-18T11:59:26.392Z,2.20
2017-11-18T12:01:53.028Z,2.63
2017-11-18T12:04:19.785Z,1.90
2017-11-18T12:06:46.423Z,2.30
2017-11-18T12:09:13.093Z,2.23
2017-11-18T12:11:39.734Z,1.83
2017-11-18T12:14:06.381Z,2.47
2017-11-18T12:16:33.035Z,1.97
2017-11-18T12:18:59.670Z,2.03
2017-11-18T12:21:26.446Z,2.30
2017-11-18T12:23:53.104Z,2.10
2017-11-18T12:26:19.763Z,2.10
2017-11-18T12:28:46.389Z,2.13
2017-11-18T12:31:13.033Z,1.93
2017-11-18T12:33:39.704Z,2.37
2017-11-18T12:36:06.358Z,2.33
2017-11-18T12:38:32.989Z,1.90
2017-11-18T12:40:59.642Z,2.37
2017-11-18T12:43:26.273Z,2.10
2017-11-18T12:45:52.956Z,1.97
2017-11-18T12:48:19.649Z,2.20
2017-11-18T12:50:46.288Z,2.50
2017-11-18T12:53:12.946Z,2.10
2017-11-18T12:55:39.657Z,2.20
2017-11-18T12:58:06.404Z,2.00
2017-11-18T13:00:33.034Z,2.30
2017-11-18T13:02:59.722Z,2.30
2017-11-18T13:05:26.355Z,2.17
2017-11-18T13:07:53.012Z,2.40
2017-11-18T13:10:19.650Z,2.10
2017-11-18T13:12:46.314Z,1.93
2017-11-18T13:15:12.951Z,2.00
2017-11-18T13:17:39.594Z,2.10
2017-11-18T13:20:06.245Z,2.20
2017-11-18T13:22:32.882Z,1.93
2017-11-18T13:24:59.534Z,2.30
2017-11-18T13:27:26.171Z,2.23
2017-11-18T13:29:52.825Z,2.43
2017-11-18T13:32:19.526Z,2.00
2017-11-18T13:34:46.178Z,2.10
2017-11-18T13:37:12.816Z,2.10
2017-11-18T13:39:39.465Z,2.43
2017-11-18T13:42:06.122Z,1.87
2017-11-18T13:44:32.769Z,2.00
2017-11-18T13:46:59.402Z,2.00
2017-11-18T13:49:26.181Z,2.50
2017-11-18T13:51:52.821Z,1.90
2017-11-18T13:54:19.486Z,1.93
2017-11-18T13:56:46.238Z,1.93
2017-11-18T13:59:12.869Z,1.93
2017-11-18T14:01:39.522Z,2.13
2017-11-18T14:04:06.158Z,1.83
2017-11-18T14:06:32.954Z,2.17
2017-11-18T14:08:59.591Z,2.20
2017-11-18T14:11:26.242Z,1.73
2017-11-18T14:13:52.893Z,2.40
2017-11-18T14:16:19.647Z,1.70
2017-11-18T14:18:46.290Z,1.83
2017-11-18T14:21:12.954Z,1.90
2017-11-18T14:23:39.589Z,2.17
2017-11-18T14:26:06.254Z,2.23
2017-11-18T14:28:33.007Z,2.00
2017-11-18T14:30:59.642Z,2.40
2017-11-18T14:33:26.295Z,1.87
2017-11-18T14:35:52.943Z,2.33
2017-11-18T14:38:19.613Z,1.60
2017-11-18T14:40:46.241Z,2.00
2017-11-18T14:43:12.890Z,1.97
2017-11-18T14:45:39.538Z,1.67
2017-11-18T14:48:06.211Z,2.00
2017-11-18T14:50:32.840Z,2.07
2017-11-18T14:52:59.506Z,2.50
2017-11-18T14:55:26.147Z,2.37
2017-11-18T14:57:52.815Z,2.00
2017-11-18T15:00:19.474Z,1.70
2017-11-18T15:02:46.104Z,1.80
2017-11-18T15:05:12.752Z,1.80
2017-11-18T15:07:39.394Z,1.97
2017-11-18T15:10:06.043Z,2.07
2017-11-18T15:12:32.677Z,1.90
2017-11-18T15:15:03.379Z,2.10
2017-11-18T15:17:35.849Z,2.00
2017-11-18T15:20:08.247Z,2.33
2017-11-18T15:22:36.305Z,2.20
2017-11-18T15:25:08.776Z,2.20
2017-11-18T15:27:50.294Z,1.90
2017-11-18T15:30:23.570Z,2.10
2017-11-18T15:32:52.890Z,1.97
2017-11-18T15:35:22.240Z,1.90
2017-11-18T15:37:54.513Z,2.00
2017-11-18T15:40:29.176Z,1.80
2017-11-18T15:42:55.863Z,2.00
2017-11-18T15:45:28.113Z,1.90
2017-11-18T15:48:13.418Z,1.80
2017-11-18T15:50:54.949Z,1.83
2017-11-18T15:53:27.222Z,1.70
2017-11-18T15:56:09.693Z,2.00
2017-11-18T15:58:37.093Z,2.03
2017-11-18T16:01:09.645Z,2.20
2017-11-18T16:03:52.937Z,2.10
2017-11-18T16:06:21.434Z,2.20
2017-11-18T16:08:48.078Z,2.00
2017-11-18T16:11:14.714Z,1.87
2017-11-18T16:13:41.423Z,1.90
2017-11-18T16:16:08.074Z,2.25
2017-11-18T16:18:34.786Z,1.90
2017-11-18T16:21:01.455Z,1.97
2017-11-18T16:23:28.142Z,2.00
2017-11-18T16:25:54.815Z,2.10
2017-11-18T16:28:21.475Z,1.83
2017-11-18T16:30:48.117Z,1.80
2017-11-18T16:33:14.766Z,1.80
2017-11-18T16:35:41.497Z,2.03
2017-11-18T16:38:08.255Z,2.13
2017-11-18T16:40:34.889Z,1.97
2017-11-18T16:43:01.579Z,1.70
2017-11-18T16:45:28.364Z,1.77
2017-11-18T16:47:55.153Z,1.73
2017-11-18T16:50:21.801Z,1.70
2017-11-18T16:52:48.463Z,1.83
2017-11-18T16:55:15.213Z,1.87
2017-11-18T16:57:41.866Z,2.20
2017-11-18T17:00:08.621Z,2.23
2017-11-18T17:02:35.265Z,2.17
2017-11-18T17:05:02.040Z,1.70
2017-11-18T17:07:28.668Z,1.60
2017-11-18T17:09:55.330Z,1.70
2017-11-18T17:12:21.977Z,1.90
2017-11-18T17:14:48.639Z,1.90
2017-11-18T17:17:15.340Z,2.10
2017-11-18T17:19:42.039Z,1.67
2017-11-18T17:22:08.732Z,2.03
2017-11-18T17:24:35.434Z,1.67
2017-11-18T17:27:02.084Z,1.60
2017-11-18T17:29:28.714Z,1.90
2017-11-18T17:31:55.367Z,1.80
2017-11-18T17:34:22.074Z,1.97
2017-11-18T17:36:48.737Z,1.57
2017-11-18T17:39:15.390Z,1.70
2017-11-18T17:41:42.089Z,1.90
2017-11-18T17:44:08.746Z,1.87
2017-11-18T17:46:35.426Z,1.70
2017-11-18T17:49:02.067Z,2.00
2017-11-18T17:51:28.698Z,1.87
2017-11-18T17:53:55.345Z,1.97
2017-11-18T17:56:21.983Z,1.80
2017-11-18T17:58:48.718Z,1.87
2017-11-18T18:01:15.351Z,2.33
2017-11-18T18:03:42.006Z,2.17
2017-11-18T18:06:08.637Z,1.60
2017-11-18T18:08:35.284Z,1.70
2017-11-18T18:11:01.931Z,1.87
2017-11-18T18:13:28.621Z,1.90
2017-11-18T18:15:55.336Z,1.80
2017-11-18T18:18:21.986Z,1.93
2017-11-18T18:20:48.637Z,1.60
2017-11-18T18:23:15.302Z,1.63
2017-11-18T18:25:41.935Z,1.97
2017-11-18T18:28:08.566Z,1.90
2017-11-18T18:30:35.217Z,2.00
2017-11-18T18:33:01.897Z,1.50
2017-11-18T18:35:28.584Z,1.57
2017-11-18T18:37:55.250Z,1.67
2017-11-18T18:40:21.902Z,1.43
2017-11-18T18:42:48.537Z,1.60
2017-11-18T18:45:15.209Z,1.33
2017-11-18T18:47:41.845Z,1.90
2017-11-18T18:50:08.489Z,2.00
2017-11-18T18:52:35.145Z,1.60
2017-11-18T18:55:01.793Z,1.90
2017-11-18T18:57:28.491Z,1.67
2017-11-18T18:59:55.234Z,1.73
2017-11-18T19:02:21.885Z,1.87
2017-11-18T19:04:48.542Z,1.90
2017-11-18T19:07:15.214Z,1.70
2017-11-18T19:09:41.845Z,1.90
2017-11-18T19:12:08.590Z,2.33
2017-11-18T19:14:35.221Z,2.00
2017-11-18T19:17:01.891Z,1.90
2017-11-18T19:19:28.595Z,2.00
2017-11-18T19:21:55.294Z,1.70
2017-11-18T19:24:21.946Z,1.90
2017-11-18T19:26:48.581Z,2.27
2017-11-18T19:29:15.349Z,2.10
2017-11-18T19:31:41.989Z,2.13
2017-11-18T19:34:08.637Z,2.13
2017-11-18T19:36:35.270Z,2.33
2017-11-18T19:39:01.976Z,1.70
2017-11-18T19:41:28.653Z,1.80
2017-11-18T19:43:55.310Z,1.80
2017-11-18T19:46:21.967Z,1.90
2017-11-18T19:48:48.610Z,2.27
2017-11-18T19:51:15.257Z,2.03
2017-11-18T19:53:41.966Z,1.70
2017-11-18T19:56:08.613Z,1.87
2017-11-18T19:58:35.271Z,2.07
2017-11-18T20:01:01.961Z,2.00
2017-11-18T20:03:28.700Z,1.90
2017-11-18T20:05:55.412Z,1.60
2017-11-18T20:08:22.069Z,1.83
2017-11-18T20:10:48.726Z,2.00
2017-11-18T20:13:15.416Z,2.07
2017-11-18T20:15:42.127Z,2.10
2017-11-18T20:18:08.785Z,2.27
2017-11-18T20:20:35.418Z,2.07
2017-11-18T20:23:02.085Z,2.17
2017-11-18T20:25:28.757Z,2.20
2017-11-18T20:27:56.573Z,1.70
2017-11-18T20:30:23.210Z,2.10
2017-11-18T20:32:49.866Z,1.77
2017-11-18T20:35:16.534Z,1.87
2017-11-18T20:37:43.533Z,1.77
2017-11-18T20:40:10.165Z,2.10
2017-11-18T20:42:36.814Z,1.93
2017-11-18T20:45:03.447Z,1.90
2017-11-18T20:47:30.093Z,1.73
2017-11-18T20:49:56.792Z,1.80
2017-11-18T20:52:23.464Z,1.97
2017-11-18T20:54:50.186Z,1.70
2017-11-18T20:57:16.836Z,2.23
2017-11-18T20:59:43.496Z,1.90
2017-11-18T21:02:10.131Z,1.70
2017-11-18T21:04:36.817Z,1.90
2017-11-18T21:07:03.446Z,2.17
2017-11-18T21:09:30.106Z,1.90
2017-11-18T21:11:56.838Z,1.90
2017-11-18T21:14:23.586Z,1.90
2017-11-18T21:16:50.226Z,1.90
2017-11-18T21:19:16.886Z,1.87
2017-11-18T21:21:43.534Z,1.97
2017-11-18T21:24:10.173Z,1.90
2017-11-18T21:26:36.830Z,1.70
2017-11-18T21:29:03.462Z,1.67
2017-11-18T21:31:30.161Z,2.00
2017-11-18T21:33:56.821Z,1.60
2017-11-18T21:36:23.495Z,1.70
2017-11-18T21:38:50.199Z,1.60
2017-11-18T21:41:16.849Z,1.50
2017-11-18T21:43:43.506Z,1.60
2017-11-18T21:46:10.187Z,1.83
2017-11-18T21:48:36.823Z,1.60
2017-11-18T21:51:03.464Z,1.60
2017-11-18T21:53:30.134Z,1.70
2017-11-18T21:55:56.989Z,1.90
2017-11-18T21:58:23.646Z,1.77
2017-11-18T22:00:50.365Z,2.03
2017-11-18T22:03:17.038Z,1.53
2017-11-18T22:05:43.774Z,1.40
2017-11-18T22:08:10.428Z,1.47
2017-11-18T22:10:37.061Z,1.43
2017-11-18T22:13:03.708Z,1.50
2017-11-18T22:15:30.357Z,1.70
2017-11-18T22:17:57.085Z,1.50
2017-11-18T22:20:23.807Z,2.00
2017-11-18T22:22:50.443Z,1.57
2017-11-18T22:25:17.126Z,1.73
2017-11-18T22:27:43.786Z,1.90
2017-11-18T22:30:10.447Z,1.60
2017-11-18T22:32:37.081Z,1.47
2017-11-18T22:35:03.730Z,1.57
2017-11-18T22:37:30.474Z,1.77
2017-11-18T22:39:57.174Z,2.27
2017-11-18T22:42:23.875Z,2.10
2017-11-18T22:44:50.530Z,2.00
2017-11-18T22:47:17.178Z,1.90
2017-11-18T22:49:43.911Z,1.70
2017-11-18T22:52:10.649Z,1.50
2017-11-18T22:54:37.315Z,1.80
2017-11-18T22:57:04.062Z,2.23
2017-11-18T22:59:30.746Z,1.67
2017-11-18T23:01:57.425Z,1.87
2017-11-18T23:04:24.190Z,2.03
2017-11-18T23:06:50.969Z,1.63
2017-11-18T23:09:17.627Z,1.83
2017-11-18T23:11:44.364Z,1.87
2017-11-18T23:14:11.026Z,1.90
2017-11-18T23:16:37.675Z,1.90
2017-11-18T23:19:04.305Z,2.00
2017-11-18T23:21:30.989Z,1.73
2017-11-18T23:23:57.692Z,1.93
2017-11-18T23:26:24.375Z,1.67
2017-11-18T23:28:51.034Z,1.77
2017-11-18T23:31:17.669Z,2.00
2017-11-18T23:33:44.325Z,1.80
2017-11-18T23:36:10.985Z,1.73
2017-11-18T23:38:37.734Z,1.50
2017-11-18T23:41:04.367Z,1.70
2017-11-18T23:43:31.060Z,2.23
2017-11-18T23:45:57.762Z,2.07
2017-11-18T23:48:24.550Z,1.83
2017-11-18T23:50:51.193Z,1.80
2017-11-18T23:53:17.970Z,1.60
2017-11-18T23:55:44.631Z,1.80
2017-11-18T23:58:11.353Z,1.70
